Terminal Aerodrome Forecast
Issued by NWS

Home | Current Version | Previous Version | Text Only | Print | Product List | Glossary On
Versions: 1 2 3 4 5 6 7 8 9 10 11 12 13 14 15 16 17 18 19 20 21 22 23 24 25 26
000
FTUS41 KOKX 212339
TAFHPN
TAF
KHPN 212339Z 2200/2224 20005KT P6SM SCT045 SCT250
     FM220800 VRB03KT P6SM BKN045
     FM221000 VRB03KT 5SM -RA BR OVC020
     FM221400 31006KT 5SM -SHRA BR SCT020 BKN030
     FM221600 32012G19KT P6SM SCT035 BKN080
     FM221900 32016G23KT P6SM SCT040 SCT250
      AMD NOT SKED=

USA.gov is the U.S. government's official web portal to all federal, state and local government web resources and services.